createdAt,value
2019-01-27T00:00:58.057Z,24.50
2019-01-27T00:03:25.981Z,23.90
2019-01-27T00:05:53.983Z,23.52
2019-01-27T00:08:21.914Z,22.62
2019-01-27T00:10:51.043Z,22.48
2019-01-27T00:13:18.976Z,22.30
2019-01-27T00:15:46.903Z,22.77
2019-01-27T00:18:14.841Z,22.27
2019-01-27T00:20:42.759Z,21.90
2019-01-27T00:23:10.691Z,23.42
2019-01-27T00:25:38.703Z,21.30
2019-01-27T00:28:06.647Z,21.68
2019-01-27T00:30:34.799Z,20.62
2019-01-27T00:33:02.723Z,22.82
2019-01-27T00:35:31.723Z,21.10
2019-01-27T00:37:59.655Z,23.27
2019-01-27T00:40:27.822Z,22.70
2019-01-27T00:42:56.715Z,23.55
2019-01-27T00:45:24.876Z,24.25
2019-01-27T00:47:52.803Z,22.40
2019-01-27T00:50:20.738Z,22.32
2019-01-27T00:52:48.667Z,22.93
2019-01-27T00:55:18.328Z,22.75
2019-01-27T00:57:46.247Z,23.27
2019-01-27T01:00:15.820Z,24.20
2019-01-27T01:02:43.987Z,23.30
2019-01-27T01:05:11.907Z,23.75
2019-01-27T01:07:40.827Z,24.10
2019-01-27T01:10:11.855Z,23.18
2019-01-27T01:12:40.032Z,24.00
2019-01-27T01:15:09.623Z,22.10
2019-01-27T01:17:38.524Z,23.62
2019-01-27T01:20:08.323Z,23.10
2019-01-27T01:22:36.248Z,22.58
2019-01-27T01:25:05.795Z,22.75
2019-01-27T01:27:33.980Z,23.02
2019-01-27T01:30:01.899Z,23.45
2019-01-27T01:32:30.067Z,23.15
2019-01-27T01:34:59.095Z,24.32
2019-01-27T01:37:27.018Z,22.37
2019-01-27T01:39:54.948Z,22.32
2019-01-27T01:42:22.896Z,22.55
2019-01-27T01:44:51.045Z,21.45
2019-01-27T01:47:18.972Z,21.48
2019-01-27T01:49:46.901Z,21.23
2019-01-27T01:52:15.064Z,21.35
2019-01-27T01:54:42.999Z,20.82
2019-01-27T01:57:10.928Z,21.37
2019-01-27T01:59:38.863Z,19.15
2019-01-27T02:02:06.793Z,20.15
2019-01-27T02:04:34.712Z,18.92
2019-01-27T02:07:02.643Z,19.52
2019-01-27T02:09:30.591Z,17.92
2019-01-27T02:11:58.511Z,20.52
2019-01-27T02:14:26.442Z,19.67
2019-01-27T02:16:54.371Z,18.82
2019-01-27T02:19:22.545Z,18.35
2019-01-27T02:21:50.712Z,18.17
2019-01-27T02:24:18.648Z,18.15
2019-01-27T02:26:46.587Z,18.27
2019-01-27T02:29:14.508Z,18.20
2019-01-27T02:31:42.433Z,17.65
2019-01-27T02:34:10.371Z,17.98
2019-01-27T02:36:38.551Z,16.73
2019-01-27T02:39:07.042Z,16.77
2019-01-27T02:41:35.200Z,16.15
2019-01-27T02:44:03.138Z,15.53
2019-01-27T02:46:31.059Z,14.50
2019-01-27T02:48:58.995Z,15.83
2019-01-27T02:51:27.162Z,15.08
2019-01-27T02:53:55.103Z,12.85
2019-01-27T02:56:23.027Z,12.68
2019-01-27T02:58:50.954Z,13.22
2019-01-27T03:01:18.884Z,12.63
2019-01-27T03:03:46.815Z,13.38
2019-01-27T03:06:19.370Z,13.53
2019-01-27T03:08:48.103Z,12.23
2019-01-27T03:11:16.043Z,13.40
2019-01-27T03:13:43.977Z,13.88
2019-01-27T03:16:12.808Z,15.13
2019-01-27T03:18:40.741Z,15.58
2019-01-27T03:21:08.910Z,17.57
2019-01-27T03:23:37.096Z,18.37
2019-01-27T03:26:05.268Z,19.92
2019-01-27T03:28:33.190Z,21.23
2019-01-27T03:31:01.132Z,21.00
2019-01-27T03:33:29.060Z,20.40
2019-01-27T03:35:56.996Z,20.82
2019-01-27T03:38:24.919Z,19.20
2019-01-27T03:40:53.072Z,18.60
2019-01-27T03:43:21.015Z,16.97
2019-01-27T03:45:48.941Z,17.17
2019-01-27T03:48:16.879Z,17.52
2019-01-27T03:50:45.046Z,15.98
2019-01-27T03:53:13.195Z,16.87
2019-01-27T03:55:41.131Z,16.12
2019-01-27T03:58:09.060Z,16.77
2019-01-27T04:00:36.995Z,16.57
2019-01-27T04:03:04.918Z,15.08
2019-01-27T04:05:32.862Z,16.25
2019-01-27T04:08:00.779Z,14.87
2019-01-27T04:10:28.888Z,14.47
2019-01-27T04:12:57.050Z,13.38
2019-01-27T04:15:24.977Z,13.65
2019-01-27T04:17:52.911Z,13.95
2019-01-27T04:20:21.200Z,13.48
2019-01-27T04:22:49.364Z,13.28
2019-01-27T04:25:17.725Z,13.48
2019-01-27T04:27:45.887Z,13.30
2019-01-27T04:30:15.272Z,13.48
2019-01-27T04:32:43.442Z,13.20
2019-01-27T04:35:11.540Z,12.47
2019-01-27T04:37:39.483Z,12.20
2019-01-27T04:40:09.039Z,12.47
2019-01-27T04:42:36.959Z,12.47
2019-01-27T04:45:06.464Z,12.63
2019-01-27T04:47:34.631Z,12.03
2019-01-27T04:50:02.790Z,12.85
2019-01-27T04:52:30.734Z,12.95
2019-01-27T04:54:58.896Z,13.18
2019-01-27T04:57:26.819Z,12.65
2019-01-27T04:59:54.752Z,12.70
2019-01-27T05:02:24.339Z,13.28
2019-01-27T05:04:52.274Z,13.25
2019-01-27T05:07:20.200Z,13.78
2019-01-27T05:09:48.135Z,13.45
2019-01-27T05:12:16.311Z,13.68
2019-01-27T05:14:44.240Z,13.98
2019-01-27T05:17:12.168Z,13.78
2019-01-27T05:19:40.119Z,14.10
2019-01-27T05:22:08.023Z,14.07
2019-01-27T05:24:35.955Z,14.07
2019-01-27T05:27:03.899Z,14.18
2019-01-27T05:29:32.052Z,13.08
2019-01-27T05:31:59.976Z,12.78
2019-01-27T05:34:27.907Z,13.05
2019-01-27T05:36:55.833Z,11.70
2019-01-27T05:39:23.780Z,13.05
2019-01-27T05:41:51.700Z,11.97
2019-01-27T05:44:19.649Z,11.97
2019-01-27T05:46:47.572Z,12.05
2019-01-27T05:49:15.499Z,12.63
2019-01-27T05:51:43.430Z,12.23
2019-01-27T05:54:11.356Z,12.50
2019-01-27T05:56:39.296Z,13.05
2019-01-27T05:59:07.499Z,12.10
2019-01-27T06:01:35.450Z,12.45
2019-01-27T06:04:04.361Z,12.13
2019-01-27T06:06:32.292Z,11.85
2019-01-27T06:09:00.228Z,10.95
2019-01-27T06:11:28.154Z,12.40
2019-01-27T06:13:56.087Z,12.05
2019-01-27T06:16:24.007Z,12.63
2019-01-27T06:18:51.941Z,11.60
2019-01-27T06:21:20.104Z,11.20
2019-01-27T06:23:48.263Z,11.05
2019-01-27T06:26:16.208Z,11.38
2019-01-27T06:28:44.135Z,11.57
2019-01-27T06:31:12.284Z,11.97
2019-01-27T06:33:41.883Z,10.63
2019-01-27T06:36:09.807Z,10.72
2019-01-27T06:38:37.736Z,10.95
2019-01-27T06:41:05.671Z,10.08
2019-01-27T06:43:34.784Z,10.60
2019-01-27T06:46:02.707Z,10.95
2019-01-27T06:48:30.636Z,10.93
2019-01-27T06:50:58.567Z,10.98
2019-01-27T06:53:26.495Z,10.20
2019-01-27T06:55:54.421Z,11.97
2019-01-27T06:58:24.002Z,11.40
2019-01-27T07:01:05.995Z,13.60
2019-01-27T07:03:38.212Z,13.98
2019-01-27T07:06:07.772Z,15.68
2019-01-27T07:08:43.428Z,16.30
2019-01-27T07:11:31.268Z,16.67
2019-01-27T07:14:00.834Z,15.93
2019-01-27T07:16:39.554Z,14.65
2019-01-27T07:19:09.128Z,13.80
2019-01-27T07:21:38.691Z,13.10
2019-01-27T07:24:10.946Z,13.40
2019-01-27T07:26:40.501Z,12.13
2019-01-27T07:29:25.412Z,12.35
2019-01-27T07:32:03.740Z,11.22
2019-01-27T07:34:45.464Z,11.10
2019-01-27T07:37:20.816Z,11.18
2019-01-27T07:39:50.402Z,10.78
2019-01-27T07:42:28.755Z,11.08
2019-01-27T07:45:04.176Z,10.45
2019-01-27T07:47:33.747Z,10.10
2019-01-27T07:50:19.882Z,10.45
2019-01-27T07:52:55.403Z,9.95
2019-01-27T07:55:27.908Z,9.80
2019-01-27T07:58:00.468Z,10.70
2019-01-27T08:00:46.867Z,9.78
2019-01-27T08:03:32.720Z,9.20
2019-01-27T08:06:08.465Z,8.70
2019-01-27T08:08:38.027Z,8.80
2019-01-27T08:11:10.499Z,8.28
2019-01-27T08:13:40.063Z,8.20
2019-01-27T08:16:15.627Z,8.23
2019-01-27T08:18:53.811Z,8.68
2019-01-27T08:21:26.081Z,8.13
2019-01-27T08:23:58.511Z,7.90
2019-01-27T08:26:28.307Z,7.70
2019-01-27T08:28:57.864Z,7.15
2019-01-27T08:31:27.426Z,7.80
2019-01-27T08:34:02.720Z,8.53
2019-01-27T08:36:44.457Z,9.75
2019-01-27T08:39:14.009Z,9.20
2019-01-27T08:41:52.299Z,10.18
2019-01-27T08:44:27.613Z,8.90
2019-01-27T08:46:55.519Z,8.95
2019-01-27T08:49:23.431Z,9.85
2019-01-27T08:51:51.372Z,8.93
2019-01-27T08:54:19.527Z,8.75
2019-01-27T08:56:47.675Z,9.18
2019-01-27T08:59:15.613Z,9.33
2019-01-27T09:01:45.173Z,9.80
2019-01-27T09:04:14.963Z,9.30
2019-01-27T09:06:53.506Z,9.98
2019-01-27T09:09:26.004Z,9.85
2019-01-27T09:11:55.559Z,9.45
2019-01-27T09:14:31.199Z,9.15
2019-01-27T09:17:17.331Z,9.15
2019-01-27T09:20:12.855Z,8.10
2019-01-27T09:22:58.835Z,7.00
2019-01-27T09:25:34.375Z,6.03
2019-01-27T09:28:06.003Z,4.95
2019-01-27T09:30:36.514Z,4.75
2019-01-27T09:33:09.031Z,4.20
2019-01-27T09:35:38.619Z,4.08
2019-01-27T09:38:14.019Z,3.72
2019-01-27T09:41:04.568Z,3.35
2019-01-27T09:43:34.151Z,3.00
2019-01-27T09:46:11.510Z,3.10
2019-01-27T09:48:41.019Z,2.67
2019-01-27T09:51:13.489Z,2.47
2019-01-27T09:53:43.275Z,2.15
2019-01-27T09:56:12.860Z,2.27
2019-01-27T09:58:45.360Z,2.12
2019-01-27T10:01:17.638Z,2.17
2019-01-27T10:03:47.248Z,1.85
2019-01-27T10:06:28.820Z,1.98
2019-01-27T10:09:15.176Z,1.80
2019-01-27T10:11:44.727Z,2.35
2019-01-27T10:14:24.385Z,2.00
2019-01-27T10:16:59.867Z,1.87
2019-01-27T10:19:29.460Z,1.90
2019-01-27T10:22:11.020Z,1.82
2019-01-27T10:24:41.672Z,1.52
2019-01-27T10:27:20.067Z,1.45
2019-01-27T10:29:58.651Z,1.77
2019-01-27T10:32:28.251Z,1.82
2019-01-27T10:35:03.587Z,1.90
2019-01-27T10:37:42.321Z,1.70
2019-01-27T10:40:29.191Z,1.87
2019-01-27T10:43:04.417Z,1.87
2019-01-27T10:45:40.156Z,1.72
2019-01-27T10:48:12.517Z,2.42
2019-01-27T10:50:57.492Z,1.82
2019-01-27T10:53:36.412Z,1.77
2019-01-27T10:56:05.975Z,1.10
2019-01-27T10:58:38.665Z,1.40
2019-01-27T11:01:26.012Z,1.30
2019-01-27T11:04:12.170Z,1.10
2019-01-27T11:06:41.728Z,1.10
2019-01-27T11:09:11.306Z,1.00
2019-01-27T11:11:40.931Z,1.37
2019-01-27T11:14:13.680Z,1.10
2019-01-27T11:16:43.241Z,1.00
2019-01-27T11:19:12.797Z,1.20
2019-01-27T11:21:44.256Z,1.00
2019-01-27T11:24:13.807Z,1.27
2019-01-27T11:26:43.610Z,1.37
2019-01-27T11:29:15.889Z,1.45
2019-01-27T11:32:02.000Z,1.25
2019-01-27T11:34:41.069Z,1.30
2019-01-27T11:37:22.647Z,1.42
2019-01-27T11:40:10.492Z,1.60
2019-01-27T11:42:42.679Z,1.22
2019-01-27T11:45:12.841Z,1.50
2019-01-27T11:47:48.414Z,1.60
2019-01-27T11:50:17.963Z,1.32
2019-01-27T11:52:47.767Z,1.60
2019-01-27T11:55:15.681Z,1.60
2019-01-27T11:57:43.659Z,1.52
2019-01-27T12:00:14.420Z,1.85
2019-01-27T12:02:46.575Z,1.57
2019-01-27T12:05:11.955Z,1.65
2019-01-27T12:07:39.875Z,2.08
2019-01-27T12:10:09.436Z,1.70
2019-01-27T12:12:37.349Z,1.50
2019-01-27T12:15:06.900Z,1.57
2019-01-27T12:17:35.581Z,1.72
2019-01-27T12:20:05.310Z,1.70
2019-01-27T12:22:33.215Z,1.60
2019-01-27T12:25:01.375Z,1.80
2019-01-27T12:27:37.039Z,1.60
2019-01-27T12:30:07.815Z,1.60
2019-01-27T12:32:35.739Z,1.47
2019-01-27T12:35:05.546Z,1.75
2019-01-27T12:37:33.523Z,1.82
2019-01-27T12:40:01.456Z,1.95
2019-01-27T12:42:29.619Z,1.67
2019-01-27T12:44:57.532Z,1.50
2019-01-27T12:47:25.452Z,1.57
2019-01-27T12:49:53.375Z,1.10
2019-01-27T12:52:21.295Z,1.47
2019-01-27T12:54:49.448Z,1.30
2019-01-27T12:57:17.373Z,1.42
2019-01-27T12:59:45.287Z,2.00
2019-01-27T13:02:13.212Z,1.55
2019-01-27T13:04:42.287Z,1.70
2019-01-27T13:07:10.435Z,1.70
2019-01-27T13:09:39.424Z,1.65
2019-01-27T13:12:07.340Z,1.20
2019-01-27T13:14:35.311Z,1.30
2019-01-27T13:17:07.416Z,1.37
2019-01-27T13:19:33.040Z,1.60
2019-01-27T13:22:00.950Z,1.30
2019-01-27T13:24:28.884Z,1.30
2019-01-27T13:26:56.805Z,1.42
2019-01-27T13:29:24.955Z,1.30
2019-01-27T13:31:52.877Z,1.30
2019-01-27T13:34:20.785Z,1.40
2019-01-27T13:36:48.715Z,1.50
2019-01-27T13:39:16.860Z,1.60
2019-01-27T13:41:44.780Z,1.37
2019-01-27T13:44:12.945Z,1.42
2019-01-27T13:46:41.087Z,1.45
2019-01-27T13:49:09.031Z,1.45
2019-01-27T13:51:37.255Z,1.80
2019-01-27T13:54:05.411Z,1.52
2019-01-27T13:56:33.349Z,1.57
2019-01-27T13:59:06.190Z,1.70
2019-01-27T14:01:36.348Z,1.50
2019-01-27T14:04:05.446Z,1.50
2019-01-27T14:06:33.379Z,1.60
2019-01-27T14:09:01.360Z,1.52
2019-01-27T14:11:30.897Z,1.87
2019-01-27T14:13:58.819Z,2.20
2019-01-27T14:16:26.752Z,1.80
2019-01-27T14:18:54.900Z,2.08
2019-01-27T14:21:23.055Z,2.40
2019-01-27T14:23:50.974Z,1.90
2019-01-27T14:26:18.887Z,1.80
2019-01-27T14:28:46.795Z,1.90
2019-01-27T14:31:14.959Z,1.87
2019-01-27T14:33:43.948Z,2.00
2019-01-27T14:36:11.862Z,2.70
2019-01-27T14:38:40.751Z,1.67
2019-01-27T14:41:15.135Z,2.00
2019-01-27T14:43:44.044Z,1.75
2019-01-27T14:46:11.955Z,3.05
2019-01-27T14:48:39.888Z,1.90
2019-01-27T14:51:16.015Z,2.50
2019-01-27T14:53:43.931Z,2.00
2019-01-27T14:56:11.860Z,2.45
2019-01-27T14:58:39.803Z,2.25
2019-01-27T15:01:07.943Z,1.87
2019-01-27T15:03:37.184Z,2.08
2019-01-27T15:06:05.102Z,2.10
2019-01-27T15:08:34.080Z,2.15
2019-01-27T15:11:02.003Z,2.45
2019-01-27T15:13:30.151Z,2.62
2019-01-27T15:15:58.075Z,2.77
2019-01-27T15:18:26.010Z,2.98
2019-01-27T15:20:55.388Z,2.27
2019-01-27T15:23:23.303Z,2.20
2019-01-27T15:25:51.218Z,1.98
2019-01-27T15:28:19.126Z,2.40
2019-01-27T15:30:47.063Z,2.90
2019-01-27T15:33:14.975Z,2.22
2019-01-27T15:35:43.128Z,2.30
2019-01-27T15:38:11.054Z,2.10
2019-01-27T15:40:38.975Z,2.10
2019-01-27T15:43:06.896Z,2.00
2019-01-27T15:45:34.823Z,2.10
2019-01-27T15:48:02.968Z,2.10
2019-01-27T15:50:32.528Z,1.85
2019-01-27T15:53:00.452Z,1.90
2019-01-27T15:55:28.440Z,2.05
2019-01-27T15:57:57.367Z,2.20
2019-01-27T16:00:29.604Z,2.00
2019-01-27T16:02:57.594Z,2.27
2019-01-27T16:05:26.507Z,2.20
2019-01-27T16:07:54.474Z,2.00
2019-01-27T16:10:23.371Z,1.95
2019-01-27T16:12:54.031Z,2.30
2019-01-27T16:15:22.855Z,2.30
2019-01-27T16:17:50.815Z,2.37
2019-01-27T16:20:19.418Z,2.47
2019-01-27T16:23:07.503Z,2.40
2019-01-27T16:25:35.412Z,2.40
2019-01-27T16:28:03.580Z,2.37
2019-01-27T16:30:48.741Z,2.87
2019-01-27T16:33:34.739Z,2.98
2019-01-27T16:36:02.675Z,2.98
2019-01-27T16:38:30.659Z,2.98
2019-01-27T16:41:00.783Z,3.50
2019-01-27T16:43:28.951Z,4.22
2019-01-27T16:45:56.876Z,3.42
2019-01-27T16:48:25.019Z,3.35
2019-01-27T16:50:52.947Z,2.52
2019-01-27T16:53:22.847Z,3.27
2019-01-27T16:55:50.999Z,5.00
2019-01-27T16:58:18.918Z,3.70
2019-01-27T17:00:46.836Z,4.75
2019-01-27T17:03:14.762Z,4.05
2019-01-27T17:05:42.668Z,3.25
2019-01-27T17:08:10.664Z,2.98
2019-01-27T17:10:38.574Z,3.30
2019-01-27T17:13:07.695Z,3.00
2019-01-27T17:15:35.612Z,5.40
2019-01-27T17:18:03.531Z,4.60
2019-01-27T17:20:32.439Z,4.20
2019-01-27T17:23:00.353Z,4.75
2019-01-27T17:25:28.284Z,4.95
2019-01-27T17:27:56.211Z,10.70
2019-01-27T17:30:25.763Z,7.40
2019-01-27T17:32:53.760Z,8.63
2019-01-27T17:38:51.927Z,4.15
2019-01-27T17:41:20.592Z,4.00
2019-01-27T17:43:48.626Z,4.75
2019-01-27T17:46:16.687Z,4.60
2019-01-27T17:48:45.836Z,5.12
2019-01-27T17:51:13.898Z,4.90
2019-01-27T17:53:43.529Z,4.40
2019-01-27T17:56:11.556Z,3.87
2019-01-27T17:58:54.395Z,4.03
2019-01-27T18:01:39.617Z,3.65
2019-01-27T18:04:18.217Z,3.90
2019-01-27T18:07:05.881Z,3.22
2019-01-27T18:09:35.825Z,3.08
2019-01-27T18:12:09.482Z,2.58
2019-01-27T18:14:39.004Z,3.62
2019-01-27T18:17:07.031Z,3.10
2019-01-27T18:19:35.409Z,2.37
2019-01-27T18:25:35.145Z,0.80
2019-01-27T18:28:03.290Z,0.80
2019-01-27T18:30:31.460Z,0.60
2019-01-27T18:32:59.388Z,0.80
2019-01-27T18:35:27.348Z,0.90
2019-01-27T18:37:55.289Z,0.90
2019-01-27T18:40:23.179Z,0.85
2019-01-27T18:42:51.175Z,0.70
2019-01-27T18:45:19.427Z,0.65
2019-01-27T18:47:48.553Z,1.22
2019-01-27T18:50:16.623Z,0.65
2019-01-27T18:52:44.540Z,1.10
2019-01-27T18:55:24.315Z,1.00
2019-01-27T18:57:55.132Z,1.12
2019-01-27T19:00:24.683Z,1.35
2019-01-27T19:03:03.175Z,1.67
2019-01-27T19:05:44.995Z,1.42
2019-01-27T19:08:14.615Z,1.55
2019-01-27T19:10:50.433Z,1.42
2019-01-27T19:13:19.984Z,1.70
2019-01-27T19:16:01.496Z,1.77
2019-01-27T19:18:33.991Z,2.10
2019-01-27T19:21:15.530Z,2.30
2019-01-27T19:23:48.060Z,2.52
2019-01-27T19:26:23.578Z,2.17
2019-01-27T19:29:11.174Z,2.20
2019-01-27T19:31:49.479Z,2.35
2019-01-27T19:34:35.190Z,3.47
2019-01-27T19:37:10.876Z,2.70
2019-01-27T19:39:57.122Z,2.27
2019-01-27T19:42:26.674Z,2.02
2019-01-27T19:44:56.488Z,1.72
2019-01-27T19:47:28.715Z,2.00
2019-01-27T19:50:13.514Z,2.12
2019-01-27T19:52:43.067Z,2.70
2019-01-27T19:55:13.306Z,2.72
2019-01-27T19:57:45.577Z,2.20
2019-01-27T20:00:27.537Z,2.98
2019-01-27T20:03:03.159Z,2.80
2019-01-27T20:05:33.690Z,3.92
2019-01-27T20:08:09.207Z,4.55
2019-01-27T20:10:41.823Z,3.50
2019-01-27T20:13:26.660Z,3.37
2019-01-27T20:15:58.963Z,3.40
2019-01-27T20:18:47.061Z,3.77
2019-01-27T20:21:16.607Z,3.22
2019-01-27T20:23:54.895Z,3.42
2019-01-27T20:26:32.965Z,3.47
2019-01-27T20:29:05.439Z,3.55
2019-01-27T20:31:44.968Z,3.42
2019-01-27T20:34:17.221Z,3.83
2019-01-27T20:36:56.029Z,3.20
2019-01-27T20:39:28.499Z,3.72
2019-01-27T20:42:01.004Z,3.00
2019-01-27T20:44:33.356Z,3.25
2019-01-27T20:47:18.191Z,3.75
2019-01-27T20:50:04.484Z,3.35
2019-01-27T20:52:34.101Z,3.40
2019-01-27T20:55:12.888Z,3.37
2019-01-27T20:57:42.512Z,4.10
2019-01-27T21:00:13.851Z,3.70
2019-01-27T21:02:53.695Z,4.03
2019-01-27T21:05:23.272Z,3.50
2019-01-27T21:07:58.903Z,4.08
2019-01-27T21:10:28.475Z,4.10
2019-01-27T21:12:58.027Z,3.52
2019-01-27T21:15:27.811Z,3.77
2019-01-27T21:17:57.379Z,3.87
2019-01-27T21:20:25.531Z,4.08
2019-01-27T21:22:53.467Z,4.05
2019-01-27T21:25:21.603Z,4.20
2019-01-27T21:27:49.516Z,4.65
2019-01-27T21:30:17.692Z,4.58
2019-01-27T21:32:45.607Z,4.33
2019-01-27T21:35:13.555Z,4.72
2019-01-27T21:37:41.703Z,4.65
2019-01-27T21:40:11.687Z,4.90
2019-01-27T21:42:47.065Z,5.83
2019-01-27T21:45:10.617Z,6.83
2019-01-27T21:47:38.541Z,5.85
2019-01-27T21:50:08.090Z,6.40
2019-01-27T21:52:36.091Z,6.40
2019-01-27T21:55:05.530Z,6.30
2019-01-27T21:57:33.443Z,6.50
2019-01-27T22:00:01.604Z,5.92
2019-01-27T22:02:31.163Z,7.08
2019-01-27T22:04:59.107Z,6.83
2019-01-27T22:07:27.031Z,6.65
2019-01-27T22:09:54.947Z,7.03
2019-01-27T22:12:22.931Z,6.12
2019-01-27T22:14:50.867Z,6.47
2019-01-27T22:17:19.067Z,6.42
2019-01-27T22:19:46.977Z,6.65
2019-01-27T22:22:14.919Z,6.35
2019-01-27T22:24:42.835Z,7.15
2019-01-27T22:27:10.771Z,7.35
2019-01-27T22:29:38.684Z,7.67
2019-01-27T22:32:06.638Z,10.05
2019-01-27T22:34:34.584Z,10.53
2019-01-27T22:37:02.740Z,9.15
2019-01-27T22:39:30.892Z,8.08
2019-01-27T22:41:59.047Z,8.55
2019-01-27T22:44:27.211Z,8.30
2019-01-27T22:46:55.138Z,7.78
2019-01-27T22:49:23.415Z,7.58
2019-01-27T22:51:51.392Z,8.78
2019-01-27T22:54:19.341Z,8.20
2019-01-27T22:56:47.275Z,8.83
2019-01-27T22:59:15.200Z,7.97
2019-01-27T23:01:43.115Z,9.90
2019-01-27T23:04:11.031Z,8.73
2019-01-27T23:06:38.959Z,10.13
2019-01-27T23:09:09.507Z,8.93
2019-01-27T23:11:38.091Z,7.78
2019-01-27T23:14:06.011Z,8.15
2019-01-27T23:16:33.955Z,7.35
2019-01-27T23:19:01.869Z,7.30
2019-01-27T23:21:30.096Z,7.83
2019-01-27T23:23:58.256Z,7.42
2019-01-27T23:26:26.420Z,7.95
2019-01-27T23:28:54.363Z,7.45
2019-01-27T23:31:22.347Z,8.28
2019-01-27T23:33:50.263Z,7.97
2019-01-27T23:36:18.437Z,7.62
2019-01-27T23:38:46.365Z,8.95
2019-01-27T23:41:14.283Z,8.43
2019-01-27T23:43:42.212Z,9.70
2019-01-27T23:46:10.135Z,9.13
2019-01-27T23:48:38.058Z,8.95
2019-01-27T23:51:06.212Z,8.33
2019-01-27T23:53:34.127Z,8.90
2019-01-27T23:56:03.119Z,8.45
2019-01-27T23:58:31.039Z,8.68
